Time;durP1;ratioP1;P1;durP2;ratioP2;P2;SDS_P1;SDS_P2;PMS_P1;PMS_P2;Temp;Humidity;BMP_temperature;BMP_pressure;BME280_temperature;BME280_humidity;BME280_pressure;Samples;Min_cycle;Max_cycle;Signal;HPM_P1;HPM_P2
2023/06/13 00:00:11;;;;;;;3.00;2.80;;;;;;;;;;5051172;28;20397;-81
2023/06/13 00:02:41;;;;;;;5.18;3.50;;;;;;;;;;5051045;28;20380;-81
2023/06/13 00:05:07;;;;;;;3.42;3.13;;;;;;;;;;5050988;28;20412;-81
2023/06/13 00:07:37;;;;;;;3.55;3.25;;;;;;;;;;5051162;28;20476;-81
2023/06/13 00:10:03;;;;;;;3.65;3.35;;;;;;;;;;5051026;28;20413;-81
2023/06/13 00:12:32;;;;;;;4.00;3.10;;;;;;;;;;5059448;28;20458;-81
2023/06/13 00:15:01;;;;;;;3.40;3.10;;;;;;;;;;5062149;28;20393;-81
2023/06/13 00:17:28;;;;;;;5.93;3.50;;;;;;;;;;5061124;28;20382;-81
2023/06/13 00:19:55;;;;;;;3.67;3.30;;;;;;;;;;5064033;28;20418;-81
2023/06/13 00:22:22;;;;;;;5.30;3.25;;;;;;;;;;5069725;28;20391;-81
2023/06/13 00:24:48;;;;;;;3.40;3.20;;;;;;;;;;5071364;28;20863;-81
2023/06/13 00:27:14;;;;;;;3.67;3.40;;;;;;;;;;5074849;28;20431;-81
2023/06/13 00:29:40;;;;;;;3.80;3.50;;;;;;;;;;5074481;28;20473;-81
2023/06/13 00:32:07;;;;;;;3.40;3.10;;;;;;;;;;5074688;28;20476;-81
2023/06/13 00:34:33;;;;;;;3.30;3.00;;;;;;;;;;5074667;28;20379;-81
2023/06/13 00:36:59;;;;;;;3.60;3.30;;;;;;;;;;5073310;28;20383;-81
2023/06/13 00:39:25;;;;;;;4.03;3.53;;;;;;;;;;5074366;28;20467;-80
2023/06/13 00:41:51;;;;;;;3.92;3.35;;;;;;;;;;5074435;28;20825;-81
2023/06/13 00:44:17;;;;;;;4.55;3.50;;;;;;;;;;5055547;28;20383;-81
2023/06/13 00:46:44;;;;;;;3.30;3.10;;;;;;;;;;5054478;28;20460;-81
2023/06/13 00:49:10;;;;;;;3.20;2.93;;;;;;;;;;5054093;28;20885;-80
2023/06/13 00:51:40;;;;;;;3.28;2.97;;;;;;;;;;5054185;28;20496;-81
2023/06/13 00:54:06;;;;;;;3.50;3.20;;;;;;;;;;5054066;28;20381;-81
2023/06/13 00:56:33;;;;;;;3.65;3.25;;;;;;;;;;5053904;28;20731;-81
2023/06/13 00:58:59;;;;;;;3.60;3.30;;;;;;;;;;5053670;28;20420;-81
2023/06/13 01:01:27;;;;;;;3.37;3.17;;;;;;;;;;5054057;28;20396;-81
2023/06/13 01:03:53;;;;;;;4.32;3.60;;;;;;;;;;5054009;28;20381;-81
2023/06/13 01:06:19;;;;;;;3.40;3.20;;;;;;;;;;5054035;28;20381;-81
2023/06/13 01:08:46;;;;;;;3.97;3.35;;;;;;;;;;5053949;28;20446;-81
2023/06/13 01:11:31;;;;;;;3.97;3.58;;;;;;;;;;5053790;28;20850;-81
2023/06/13 01:13:57;;;;;;;3.50;3.20;;;;;;;;;;5054075;28;20424;-81
2023/06/13 01:16:33;;;;;;;3.88;3.50;;;;;;;;;;5053950;28;20862;-81
2023/06/13 01:18:59;;;;;;;3.63;3.28;;;;;;;;;;5053775;28;20382;-80
2023/06/13 01:21:27;;;;;;;3.95;3.65;;;;;;;;;;5052976;28;20385;-80
2023/06/13 01:23:53;;;;;;;3.67;3.38;;;;;;;;;;5053788;28;20490;-80
2023/06/13 01:26:37;;;;;;;3.67;3.38;;;;;;;;;;5066892;28;20384;-80
2023/06/13 01:29:04;;;;;;;3.35;3.05;;;;;;;;;;5054528;28;20882;-79
2023/06/13 01:31:31;;;;;;;3.40;3.20;;;;;;;;;;5071702;28;20403;-80
2023/06/13 01:33:58;;;;;;;3.57;3.30;;;;;;;;;;5072851;28;20464;-80
2023/06/13 01:36:25;;;;;;;3.50;3.30;;;;;;;;;;5053567;28;20413;-80
2023/06/13 01:38:51;;;;;;;3.67;3.38;;;;;;;;;;5053321;28;20460;-80
2023/06/13 01:41:17;;;;;;;3.90;3.45;;;;;;;;;;5052365;28;20794;-79
2023/06/13 01:43:43;;;;;;;3.50;3.20;;;;;;;;;;5053368;28;20377;-80
2023/06/13 01:46:27;;;;;;;3.55;3.30;;;;;;;;;;5053148;28;20862;-80
2023/06/13 01:49:08;;;;;;;3.22;3.03;;;;;;;;;;5053387;28;20369;-80
2023/06/13 01:51:35;;;;;;;3.63;3.33;;;;;;;;;;5052982;28;20438;-80
2023/06/13 01:54:03;;;;;;;3.40;3.20;;;;;;;;;;5053134;28;20517;-80
2023/06/13 01:56:31;;;;;;;4.03;3.70;;;;;;;;;;5053145;28;20406;-80
2023/06/13 01:58:59;;;;;;;3.80;3.40;;;;;;;;;;5052837;28;20854;-80
2023/06/13 02:01:32;;;;;;;3.38;3.17;;;;;;;;;;5052937;28;20408;-79
2023/06/13 02:03:59;;;;;;;3.55;3.25;;;;;;;;;;5052918;28;20412;-80
2023/06/13 02:06:26;;;;;;;3.65;3.33;;;;;;;;;;5052809;28;20435;-80
2023/06/13 02:08:52;;;;;;;6.10;3.90;;;;;;;;;;5052704;28;20382;-80
2023/06/13 02:11:18;;;;;;;3.55;3.25;;;;;;;;;;5052569;28;20401;-80
2023/06/13 02:13:45;;;;;;;3.90;3.60;;;;;;;;;;5052731;28;20389;-80
2023/06/13 02:16:11;;;;;;;4.28;3.85;;;;;;;;;;5052523;28;21000;-79
2023/06/13 02:18:39;;;;;;;4.07;3.70;;;;;;;;;;5052403;28;20384;-80
2023/06/13 02:21:05;;;;;;;3.90;3.50;;;;;;;;;;5052445;28;20400;-80
2023/06/13 02:23:31;;;;;;;3.88;3.55;;;;;;;;;;5052406;28;20468;-80
2023/06/13 02:25:57;;;;;;;3.60;3.30;;;;;;;;;;5052374;28;20385;-80
2023/06/13 02:28:23;;;;;;;4.18;3.88;;;;;;;;;;5052510;28;20397;-80
2023/06/13 02:30:49;;;;;;;4.25;3.85;;;;;;;;;;5063428;28;20500;-80
2023/06/13 02:33:15;;;;;;;3.70;3.40;;;;;;;;;;5058468;28;20384;-80
2023/06/13 02:35:42;;;;;;;3.70;3.40;;;;;;;;;;5052474;28;20431;-80
2023/06/13 02:38:08;;;;;;;3.80;3.50;;;;;;;;;;5064243;28;20448;-80
2023/06/13 02:40:37;;;;;;;3.63;3.33;;;;;;;;;;5057823;28;20397;-80
2023/06/13 02:43:03;;;;;;;3.97;3.58;;;;;;;;;;5052062;28;20454;-80
2023/06/13 02:45:29;;;;;;;3.88;3.60;;;;;;;;;;5051914;28;20867;-80
2023/06/13 02:47:55;;;;;;;4.20;3.60;;;;;;;;;;5051736;28;20387;-80
2023/06/13 02:50:21;;;;;;;4.45;3.67;;;;;;;;;;5051675;28;20417;-80
2023/06/13 02:52:47;;;;;;;3.80;3.40;;;;;;;;;;5051835;28;20850;-80
2023/06/13 02:55:13;;;;;;;4.25;3.85;;;;;;;;;;5051770;28;20385;-79
2023/06/13 02:57:40;;;;;;;4.33;3.30;;;;;;;;;;5051226;28;20949;-80
2023/06/13 03:00:07;;;;;;;4.03;3.63;;;;;;;;;;5051777;28;20393;-79
2023/06/13 03:02:36;;;;;;;3.75;3.45;;;;;;;;;;5051594;28;20377;-79
2023/06/13 03:05:03;;;;;;;4.30;3.90;;;;;;;;;;5051331;28;20420;-79
2023/06/13 03:07:31;;;;;;;3.75;3.50;;;;;;;;;;5050286;28;20986;-81
2023/06/13 03:09:57;;;;;;;3.92;3.63;;;;;;;;;;5051512;28;20409;-79
2023/06/13 03:12:23;;;;;;;5.50;3.77;;;;;;;;;;5051697;28;20865;-79
2023/06/13 03:14:49;;;;;;;4.03;3.72;;;;;;;;;;5051126;28;20460;-78
2023/06/13 03:17:16;;;;;;;3.50;3.20;;;;;;;;;;5051535;28;20403;-80
2023/06/13 03:19:42;;;;;;;4.05;3.65;;;;;;;;;;5050899;28;20381;-79
2023/06/13 03:22:13;;;;;;;3.60;3.30;;;;;;;;;;5051299;28;20377;-79
2023/06/13 03:24:40;;;;;;;4.45;3.50;;;;;;;;;;5051557;28;20406;-79
2023/06/13 03:27:06;;;;;;;4.00;3.70;;;;;;;;;;5050114;28;20902;-79
2023/06/13 03:29:32;;;;;;;4.15;3.70;;;;;;;;;;5050922;28;20877;-79
2023/06/13 03:31:58;;;;;;;3.75;3.40;;;;;;;;;;5062924;28;20888;-80
2023/06/13 03:34:26;;;;;;;4.90;3.65;;;;;;;;;;5052717;28;20472;-79
2023/06/13 03:36:52;;;;;;;3.90;3.58;;;;;;;;;;5067520;28;20892;-79
2023/06/13 03:39:18;;;;;;;3.90;3.50;;;;;;;;;;5053771;28;20378;-79
2023/06/13 03:41:44;;;;;;;3.90;3.60;;;;;;;;;;5052456;28;20416;-80
2023/06/13 03:44:10;;;;;;;3.40;3.10;;;;;;;;;;5050964;28;20377;-79
2023/06/13 03:46:36;;;;;;;3.47;3.17;;;;;;;;;;5051197;28;20382;-79
2023/06/13 03:49:02;;;;;;;3.63;3.33;;;;;;;;;;5051133;28;20389;-79
2023/06/13 03:51:29;;;;;;;3.33;3.03;;;;;;;;;;5050448;28;20417;-79
2023/06/13 03:53:54;;;;;;;4.25;3.35;;;;;;;;;;5051210;28;20409;-79
2023/06/13 03:56:20;;;;;;;3.85;3.50;;;;;;;;;;5051204;28;20486;-79
2023/06/13 03:58:46;;;;;;;3.70;3.40;;;;;;;;;;5051110;28;20455;-80
2023/06/13 04:01:12;;;;;;;4.30;3.67;;;;;;;;;;5053284;28;20386;-79
2023/06/13 04:03:39;;;;;;;4.03;3.40;;;;;;;;;;5055221;28;20384;-79
2023/06/13 04:06:08;;;;;;;3.90;3.50;;;;;;;;;;5055119;28;20385;-79
2023/06/13 04:08:38;;;;;;;3.70;3.40;;;;;;;;;;5055041;28;20392;-79
2023/06/13 04:11:05;;;;;;;3.70;3.40;;;;;;;;;;5054697;28;20512;-79
2023/06/13 04:13:31;;;;;;;3.75;3.25;;;;;;;;;;5055211;28;20858;-80
2023/06/13 04:15:57;;;;;;;4.35;3.22;;;;;;;;;;5055013;28;20735;-79
2023/06/13 04:18:24;;;;;;;3.70;3.30;;;;;;;;;;5054789;28;20380;-79
2023/06/13 04:20:52;;;;;;;3.67;3.38;;;;;;;;;;5054670;28;20389;-79
2023/06/13 04:23:19;;;;;;;3.15;2.85;;;;;;;;;;5054598;28;20420;-79
2023/06/13 04:25:45;;;;;;;3.65;3.35;;;;;;;;;;5054672;28;20420;-79
2023/06/13 04:28:13;;;;;;;3.80;3.40;;;;;;;;;;5054529;28;20392;-79
2023/06/13 04:30:46;;;;;;;3.80;3.22;;;;;;;;;;5054224;28;20550;-79
2023/06/13 04:33:16;;;;;;;3.30;3.08;;;;;;;;;;5054569;28;20407;-79
2023/06/13 04:35:44;;;;;;;3.65;3.28;;;;;;;;;;5064427;28;20913;-79
2023/06/13 04:38:21;;;;;;;3.85;3.45;;;;;;;;;;5072563;28;20376;-79
2023/06/13 04:40:47;;;;;;;3.45;3.15;;;;;;;;;;5060688;28;20396;-79
2023/06/13 04:43:17;;;;;;;4.30;3.00;;;;;;;;;;5071464;28;20428;-80
2023/06/13 04:45:43;;;;;;;3.60;3.30;;;;;;;;;;5062896;28;20382;-80
2023/06/13 04:48:10;;;;;;;3.38;2.90;;;;;;;;;;5054822;28;20396;-79
2023/06/13 04:50:41;;;;;;;3.50;3.20;;;;;;;;;;5053835;28;20421;-79
2023/06/13 04:53:08;;;;;;;4.35;3.10;;;;;;;;;;5054545;28;20409;-80
2023/06/13 04:55:37;;;;;;;6.90;3.20;;;;;;;;;;5054234;28;20381;-80
2023/06/13 04:58:03;;;;;;;3.50;3.20;;;;;;;;;;5051484;28;20392;-79
2023/06/13 05:00:29;;;;;;;3.57;3.00;;;;;;;;;;5054077;28;20385;-80
2023/06/13 05:03:00;;;;;;;4.05;3.10;;;;;;;;;;5054285;28;20800;-80
2023/06/13 05:05:27;;;;;;;3.00;2.80;;;;;;;;;;5053993;28;20388;-80
2023/06/13 05:07:55;;;;;;;4.55;3.03;;;;;;;;;;5053946;28;20427;-80
2023/06/13 05:10:25;;;;;;;3.47;3.10;;;;;;;;;;5053899;28;20902;-80
2023/06/13 05:12:51;;;;;;;3.67;3.17;;;;;;;;;;5053502;28;20435;-80
2023/06/13 05:15:18;;;;;;;4.22;3.35;;;;;;;;;;5053835;28;20381;-80
2023/06/13 05:17:48;;;;;;;3.90;3.20;;;;;;;;;;5053420;28;20404;-79
2023/06/13 05:20:14;;;;;;;4.75;3.15;;;;;;;;;;5053699;28;20389;-80
2023/06/13 05:22:41;;;;;;;3.55;3.20;;;;;;;;;;5053712;28;20431;-79
2023/06/13 05:25:09;;;;;;;5.38;3.28;;;;;;;;;;5053263;28;20382;-80
2023/06/13 05:27:35;;;;;;;3.40;3.10;;;;;;;;;;5052086;28;20393;-80
2023/06/13 05:30:01;;;;;;;3.90;3.13;;;;;;;;;;5053362;28;20413;-80
2023/06/13 05:32:29;;;;;;;3.10;2.90;;;;;;;;;;5053011;28;20470;-80
2023/06/13 05:34:56;;;;;;;3.90;3.42;;;;;;;;;;5053217;28;20382;-80
2023/06/13 05:37:22;;;;;;;3.90;3.00;;;;;;;;;;5054394;28;20387;-80
2023/06/13 05:39:48;;;;;;;3.10;2.80;;;;;;;;;;5066367;28;20372;-80
2023/06/13 05:42:14;;;;;;;4.05;3.10;;;;;;;;;;5057558;28;20447;-80
2023/06/13 05:44:40;;;;;;;3.38;2.90;;;;;;;;;;5069308;28;20381;-80
2023/06/13 05:47:06;;;;;;;3.33;3.03;;;;;;;;;;5059964;28;20380;-81
2023/06/13 05:49:32;;;;;;;4.00;3.10;;;;;;;;;;5072874;28;20378;-80
2023/06/13 05:51:58;;;;;;;7.60;3.08;;;;;;;;;;5071700;28;20407;-81
2023/06/13 05:54:24;;;;;;;5.50;3.20;;;;;;;;;;5073207;28;20408;-80
2023/06/13 05:56:50;;;;;;;3.30;3.00;;;;;;;;;;5073100;28;20467;-80
2023/06/13 05:59:16;;;;;;;3.35;2.83;;;;;;;;;;5072814;28;20927;-81
2023/06/13 06:01:43;;;;;;;3.17;2.83;;;;;;;;;;5072805;28;20398;-81
2023/06/13 06:04:09;;;;;;;3.43;2.67;;;;;;;;;;5073137;28;20795;-81
2023/06/13 06:06:36;;;;;;;2.80;2.60;;;;;;;;;;5072968;28;20474;-81
2023/06/13 06:09:03;;;;;;;4.25;2.85;;;;;;;;;;5072821;28;20380;-81
2023/06/13 06:11:29;;;;;;;4.32;2.70;;;;;;;;;;5072673;28;20892;-80
2023/06/13 06:13:56;;;;;;;3.10;2.80;;;;;;;;;;5072705;28;20380;-80
2023/06/13 06:16:22;;;;;;;4.00;3.08;;;;;;;;;;5072723;28;20855;-81
2023/06/13 06:18:48;;;;;;;4.53;2.90;;;;;;;;;;5072670;28;20379;-80
2023/06/13 06:21:14;;;;;;;3.40;3.03;;;;;;;;;;5072284;28;20892;-81
2023/06/13 06:23:42;;;;;;;3.70;2.80;;;;;;;;;;5071618;28;20391;-80
2023/06/13 06:26:08;;;;;;;3.20;2.90;;;;;;;;;;5072540;28;20387;-81
2023/06/13 06:28:34;;;;;;;3.95;3.10;;;;;;;;;;5072409;28;20455;-80
2023/06/13 06:31:01;;;;;;;3.83;2.90;;;;;;;;;;5072195;28;20527;-80
2023/06/13 06:33:27;;;;;;;4.95;3.00;;;;;;;;;;5072638;28;20367;-80
2023/06/13 06:35:53;;;;;;;3.72;2.88;;;;;;;;;;5072472;28;20771;-80
2023/06/13 06:38:19;;;;;;;2.90;2.63;;;;;;;;;;5069804;28;20734;-82
2023/06/13 06:40:45;;;;;;;3.38;2.80;;;;;;;;;;5068790;28;20913;-81
2023/06/13 06:43:11;;;;;;;3.30;2.73;;;;;;;;;;5071414;28;20802;-81
2023/06/13 06:45:37;;;;;;;3.83;2.92;;;;;;;;;;5052108;28;20385;-81
2023/06/13 06:48:03;;;;;;;3.45;2.83;;;;;;;;;;5052372;28;20859;-81
2023/06/13 06:50:30;;;;;;;3.83;2.88;;;;;;;;;;5051833;28;20424;-80
2023/06/13 06:52:56;;;;;;;3.30;2.92;;;;;;;;;;5051631;28;20389;-81
2023/06/13 06:55:22;;;;;;;3.95;2.88;;;;;;;;;;5052217;28;20461;-81
2023/06/13 06:57:48;;;;;;;4.55;3.10;;;;;;;;;;5052136;28;20442;-80
2023/06/13 07:00:14;;;;;;;3.17;2.88;;;;;;;;;;5052039;28;20866;-81
2023/06/13 07:02:43;;;;;;;3.80;3.10;;;;;;;;;;5052325;28;20389;-80
2023/06/13 07:05:10;;;;;;;4.25;3.10;;;;;;;;;;5049660;28;20720;-81
2023/06/13 07:07:36;;;;;;;3.67;3.00;;;;;;;;;;5051761;28;20443;-81
2023/06/13 07:10:02;;;;;;;3.03;2.75;;;;;;;;;;5049242;28;20409;-80
2023/06/13 07:12:28;;;;;;;3.30;3.00;;;;;;;;;;5052007;28;20512;-82
2023/06/13 07:14:55;;;;;;;2.95;2.60;;;;;;;;;;5051799;28;20435;-80
2023/06/13 07:17:21;;;;;;;4.00;3.20;;;;;;;;;;5051842;28;20381;-81
2023/06/13 07:19:47;;;;;;;5.03;2.90;;;;;;;;;;5051409;28;20731;-81
2023/06/13 07:22:13;;;;;;;3.60;2.80;;;;;;;;;;5051603;28;20472;-81
2023/06/13 07:24:38;;;;;;;4.60;2.70;;;;;;;;;;5051621;28;20396;-81
2023/06/13 07:27:05;;;;;;;3.03;2.72;;;;;;;;;;5051717;28;20922;-81
2023/06/13 07:29:31;;;;;;;4.25;3.00;;;;;;;;;;5051005;28;20435;-81
2023/06/13 07:31:57;;;;;;;2.90;2.70;;;;;;;;;;5051457;28;20378;-80
2023/06/13 07:34:23;;;;;;;3.97;2.90;;;;;;;;;;5051362;28;20439;-81
2023/06/13 07:36:49;;;;;;;4.22;2.65;;;;;;;;;;5051286;28;20452;-81
2023/06/13 07:39:16;;;;;;;2.90;2.70;;;;;;;;;;5051277;28;20561;-81
2023/06/13 07:41:46;;;;;;;4.68;2.60;;;;;;;;;;5051477;28;20435;-81
2023/06/13 07:44:12;;;;;;;3.63;2.88;;;;;;;;;;5062398;28;20454;-82
2023/06/13 07:46:38;;;;;;;3.60;2.63;;;;;;;;;;5057985;28;20376;-82
2023/06/13 07:49:04;;;;;;;4.50;2.50;;;;;;;;;;5061038;28;20385;-82
2023/06/13 07:51:30;;;;;;;2.90;2.70;;;;;;;;;;5064256;28;21277;-82
2023/06/13 07:53:56;;;;;;;4.40;2.90;;;;;;;;;;5051436;28;20477;-82
2023/06/13 07:56:22;;;;;;;5.28;2.63;;;;;;;;;;5051141;28;20439;-82
2023/06/13 07:58:48;;;;;;;3.07;2.77;;;;;;;;;;5051299;28;20468;-82
2023/06/13 08:01:15;;;;;;;3.10;2.60;;;;;;;;;;5051211;28;20381;-81
2023/06/13 08:03:41;;;;;;;5.00;2.72;;;;;;;;;;5051440;28;20735;-82
2023/06/13 08:06:07;;;;;;;3.70;2.90;;;;;;;;;;5050950;28;20385;-82
2023/06/13 08:08:33;;;;;;;5.85;3.08;;;;;;;;;;5051185;28;20378;-82
2023/06/13 08:10:59;;;;;;;4.65;2.97;;;;;;;;;;5050923;28;20921;-82
2023/06/13 08:13:25;;;;;;;4.07;2.80;;;;;;;;;;5051115;28;20439;-82
2023/06/13 08:15:51;;;;;;;3.00;2.72;;;;;;;;;;5050912;28;20393;-81
2023/06/13 08:18:17;;;;;;;4.13;2.77;;;;;;;;;;5051023;28;20472;-81
2023/06/13 08:20:43;;;;;;;5.18;2.90;;;;;;;;;;5050943;28;20908;-81
2023/06/13 08:23:09;;;;;;;2.90;2.70;;;;;;;;;;5050974;28;20385;-82
2023/06/13 08:25:36;;;;;;;3.58;2.55;;;;;;;;;;5050802;28;20389;-83
2023/06/13 08:28:02;;;;;;;3.55;2.50;;;;;;;;;;5050974;28;20386;-82
2023/06/13 08:30:28;;;;;;;3.10;2.80;;;;;;;;;;5050831;28;20405;-82
2023/06/13 08:32:54;;;;;;;3.50;2.45;;;;;;;;;;5050816;28;20850;-82
2023/06/13 08:35:21;;;;;;;3.80;3.00;;;;;;;;;;5051022;28;20430;-83
2023/06/13 08:37:47;;;;;;;4.05;3.00;;;;;;;;;;5050586;28;20382;-81
2023/06/13 08:40:15;;;;;;;4.30;2.95;;;;;;;;;;5050833;28;20381;-82
2023/06/13 08:42:43;;;;;;;2.88;2.60;;;;;;;;;;5050808;28;20389;-82
2023/06/13 08:45:09;;;;;;;2.73;2.50;;;;;;;;;;5050951;28;20434;-82
2023/06/13 08:47:35;;;;;;;3.95;2.80;;;;;;;;;;5061981;28;20436;-82
2023/06/13 08:50:02;;;;;;;5.03;2.65;;;;;;;;;;5056368;28;20428;-83
2023/06/13 08:52:43;;;;;;;7.18;3.10;;;;;;;;;;5066966;28;20377;-83
2023/06/13 08:55:12;;;;;;;3.60;3.03;;;;;;;;;;5073756;28;20372;-82
2023/06/13 08:57:42;;;;;;;4.00;2.47;;;;;;;;;;5074308;28;20883;-81
2023/06/13 09:00:12;;;;;;;2.75;2.55;;;;;;;;;;5074236;28;20378;-83
2023/06/13 09:02:39;;;;;;;4.45;2.70;;;;;;;;;;5060652;28;20385;-82
2023/06/13 09:05:06;;;;;;;3.42;2.60;;;;;;;;;;5054376;28;20477;-83
2023/06/13 09:07:33;;;;;;;6.05;2.58;;;;;;;;;;5054158;28;20377;-82
2023/06/13 09:09:59;;;;;;;2.53;2.30;;;;;;;;;;5053932;28;20831;-82
2023/06/13 09:12:25;;;;;;;5.18;2.42;;;;;;;;;;5053851;28;20427;-82
2023/06/13 09:14:52;;;;;;;4.22;2.40;;;;;;;;;;5053420;28;20389;-83
2023/06/13 09:17:18;;;;;;;4.65;2.72;;;;;;;;;;5054053;28;20716;-83
2023/06/13 09:19:45;;;;;;;3.67;2.90;;;;;;;;;;5053842;28;20404;-82
2023/06/13 09:22:11;;;;;;;3.90;2.67;;;;;;;;;;5053665;28;20431;-83
2023/06/13 09:24:37;;;;;;;3.50;2.55;;;;;;;;;;5053865;28;20402;-83
2023/06/13 09:27:04;;;;;;;2.63;2.40;;;;;;;;;;5053859;28;20384;-82
2023/06/13 09:29:39;;;;;;;3.47;2.50;;;;;;;;;;5053614;28;20738;-82
2023/06/13 09:32:08;;;;;;;3.70;2.33;;;;;;;;;;5053460;28;20389;-82
2023/06/13 09:34:34;;;;;;;3.75;2.30;;;;;;;;;;5053739;28;20389;-82
2023/06/13 09:37:00;;;;;;;4.32;2.67;;;;;;;;;;5053313;28;20383;-82
2023/06/13 09:39:28;;;;;;;3.25;2.38;;;;;;;;;;5053437;28;20465;-82
2023/06/13 09:41:58;;;;;;;2.65;2.40;;;;;;;;;;5053441;28;20377;-82
2023/06/13 09:44:25;;;;;;;2.80;2.30;;;;;;;;;;5053209;28;20374;-81
2023/06/13 09:46:51;;;;;;;4.28;2.60;;;;;;;;;;5047718;28;20388;-83
2023/06/13 09:49:17;;;;;;;3.50;3.00;;;;;;;;;;5064151;28;20402;-82
2023/06/13 09:51:45;;;;;;;4.80;2.78;;;;;;;;;;5068475;28;20407;-81
2023/06/13 09:54:11;;;;;;;2.92;2.63;;;;;;;;;;5061904;28;20379;-82
2023/06/13 09:56:37;;;;;;;3.97;2.45;;;;;;;;;;5073245;28;20376;-82
2023/06/13 09:59:03;;;;;;;2.78;2.50;;;;;;;;;;5071885;28;20429;-82
2023/06/13 10:01:29;;;;;;;3.05;2.60;;;;;;;;;;5073074;28;20387;-82
2023/06/13 10:03:56;;;;;;;2.55;2.35;;;;;;;;;;5073077;28;20433;-82
2023/06/13 10:06:23;;;;;;;3.15;2.20;;;;;;;;;;5073167;28;20884;-82
2023/06/13 10:08:49;;;;;;;4.40;2.40;;;;;;;;;;5073140;28;20417;-82
2023/06/13 10:11:23;;;;;;;4.68;2.55;;;;;;;;;;5072666;28;20465;-83
2023/06/13 10:13:52;;;;;;;4.50;2.30;;;;;;;;;;5072947;28;20384;-82
2023/06/13 10:16:20;;;;;;;5.78;2.40;;;;;;;;;;5072943;28;20399;-82
2023/06/13 10:18:48;;;;;;;2.97;2.65;;;;;;;;;;5072869;28;20388;-82
2023/06/13 10:21:14;;;;;;;2.95;2.40;;;;;;;;;;5072686;28;20376;-82
2023/06/13 10:23:44;;;;;;;3.53;2.70;;;;;;;;;;5072812;28;20423;-82
2023/06/13 10:26:15;;;;;;;3.05;2.38;;;;;;;;;;5072702;28;20853;-81
2023/06/13 10:28:59;;;;;;;2.70;2.43;;;;;;;;;;5072635;28;20391;-82
2023/06/13 10:31:44;;;;;;;2.53;2.23;;;;;;;;;;5072300;28;20445;-82
2023/06/13 10:34:30;;;;;;;3.22;2.20;;;;;;;;;;5066761;28;20431;-82
2023/06/13 10:37:03;;;;;;;3.25;2.58;;;;;;;;;;5052383;28;20377;-82
2023/06/13 10:39:35;;;;;;;3.67;2.30;;;;;;;;;;5052186;28;20432;-81
2023/06/13 10:42:01;;;;;;;3.97;2.40;;;;;;;;;;5089309;22;20766;-86
2023/06/13 10:44:44;;;;;;;2.47;2.28;;;;;;;;;;5030431;28;20453;-85
2023/06/13 10:47:10;;;;;;;3.15;2.75;;;;;;;;;;5034920;28;20389;-85
2023/06/13 10:49:37;;;;;;;3.20;2.40;;;;;;;;;;5041142;28;20473;-83
2023/06/13 10:52:04;;;;;;;3.77;2.50;;;;;;;;;;5047181;28;20477;-86
2023/06/13 10:54:30;;;;;;;2.53;2.33;;;;;;;;;;5032015;28;20390;-87
2023/06/13 10:57:00;;;;;;;3.63;2.42;;;;;;;;;;5041450;28;20439;-84
2023/06/13 10:59:30;;;;;;;4.88;2.22;;;;;;;;;;5051817;28;20381;-86
2023/06/13 11:01:56;;;;;;;5.72;2.50;;;;;;;;;;5052027;28;20811;-86
2023/06/13 11:04:22;;;;;;;4.43;2.40;;;;;;;;;;5034398;28;20383;-87
2023/06/13 11:06:51;;;;;;;2.85;2.47;;;;;;;;;;5030649;28;20379;-85
2023/06/13 11:09:25;;;;;;;3.03;2.25;;;;;;;;;;5031365;28;20856;-86
2023/06/13 11:11:54;;;;;;;5.93;2.70;;;;;;;;;;5031640;28;20418;-87
2023/06/13 11:14:21;;;;;;;3.90;2.70;;;;;;;;;;5031654;28;20450;-85
2023/06/13 11:16:47;;;;;;;5.18;2.47;;;;;;;;;;5031665;28;20383;-86
2023/06/13 11:19:14;;;;;;;3.27;2.40;;;;;;;;;;5031603;28;20865;-86
2023/06/13 11:21:45;;;;;;;5.10;2.70;;;;;;;;;;5031561;28;20387;-87
2023/06/13 11:24:14;;;;;;;2.88;2.40;;;;;;;;;;5031566;28;20383;-85
2023/06/13 11:26:41;;;;;;;2.80;2.50;;;;;;;;;;5030341;28;20558;-86
2023/06/13 11:29:07;;;;;;;3.25;2.60;;;;;;;;;;5031454;28;20390;-86
2023/06/13 11:31:34;;;;;;;4.07;2.45;;;;;;;;;;5031270;28;20943;-86
2023/06/13 11:34:01;;;;;;;3.97;2.40;;;;;;;;;;5047354;28;20751;-85
2023/06/13 11:36:27;;;;;;;3.70;2.42;;;;;;;;;;5051369;28;20504;-86
2023/06/13 11:38:53;;;;;;;4.97;2.60;;;;;;;;;;5051223;28;20377;-87
2023/06/13 11:41:19;;;;;;;3.75;2.38;;;;;;;;;;5051264;28;20874;-86
2023/06/13 11:43:45;;;;;;;2.47;2.28;;;;;;;;;;5051047;28;20865;-86
2023/06/13 11:46:13;;;;;;;5.38;2.35;;;;;;;;;;5051281;28;20866;-85
2023/06/13 11:48:39;;;;;;;3.40;2.85;;;;;;;;;;5051121;28;20377;-86
2023/06/13 11:51:08;;;;;;;2.60;2.40;;;;;;;;;;5041417;28;20418;-87
2023/06/13 11:53:46;;;;;;;2.92;2.63;;;;;;;;;;5043782;28;20431;-85
2023/06/13 11:56:12;;;;;;;3.25;2.83;;;;;;;;;;5031220;28;20389;-85
2023/06/13 11:58:38;;;;;;;3.00;2.28;;;;;;;;;;5035551;28;20379;-85
2023/06/13 12:01:05;;;;;;;2.80;2.53;;;;;;;;;;5031107;28;20391;-85
2023/06/13 12:03:37;;;;;;;2.83;2.30;;;;;;;;;;5031151;28;20379;-85
2023/06/13 12:06:06;;;;;;;2.80;2.50;;;;;;;;;;5031095;28;20398;-85
2023/06/13 12:08:34;;;;;;;4.13;2.67;;;;;;;;;;5031165;28;20434;-85
2023/06/13 12:11:02;;;;;;;4.70;2.60;;;;;;;;;;5030934;28;20406;-86
2023/06/13 12:13:28;;;;;;;3.60;2.40;;;;;;;;;;5031075;28;20385;-85
2023/06/13 12:15:54;;;;;;;3.13;2.40;;;;;;;;;;5030952;28;20411;-85
2023/06/13 12:18:20;;;;;;;3.67;2.53;;;;;;;;;;5030976;28;20422;-85
2023/06/13 12:20:53;;;;;;;5.33;2.37;;;;;;;;;;5031269;28;20395;-85
2023/06/13 12:23:20;;;;;;;4.38;2.45;;;;;;;;;;5033612;28;20394;-85
2023/06/13 12:25:46;;;;;;;4.45;3.05;;;;;;;;;;5034837;28;20395;-86
2023/06/13 12:28:15;;;;;;;4.32;2.88;;;;;;;;;;5034843;28;20379;-86
2023/06/13 12:30:42;;;;;;;6.10;2.42;;;;;;;;;;5039520;28;20765;-86
2023/06/13 12:33:08;;;;;;;3.00;2.38;;;;;;;;;;5054638;28;20381;-85
2023/06/13 12:35:34;;;;;;;4.33;2.70;;;;;;;;;;5053290;28;20397;-87
2023/06/13 12:38:01;;;;;;;3.37;2.37;;;;;;;;;;5054471;28;20463;-86
2023/06/13 12:40:36;;;;;;;2.67;2.40;;;;;;;;;;5054544;28;20382;-86
2023/06/13 12:43:02;;;;;;;3.65;2.63;;;;;;;;;;5054074;28;20413;-86
2023/06/13 12:45:31;;;;;;;3.38;2.60;;;;;;;;;;5054669;28;20746;-86
2023/06/13 12:47:58;;;;;;;4.03;2.55;;;;;;;;;;5054303;28;20388;-86
2023/06/13 12:50:25;;;;;;;4.35;2.70;;;;;;;;;;5052047;28;20405;-85
2023/06/13 12:53:01;;;;;;;3.58;2.50;;;;;;;;;;5053262;28;20389;-85
2023/06/13 12:55:28;;;;;;;3.72;2.70;;;;;;;;;;5048054;28;20399;-86
2023/06/13 12:57:54;;;;;;;2.78;2.45;;;;;;;;;;5034552;28;20379;-85
2023/06/13 13:00:22;;;;;;;2.60;2.40;;;;;;;;;;5042677;28;20377;-85
2023/06/13 13:02:48;;;;;;;3.47;2.72;;;;;;;;;;5039870;28;20387;-86
2023/06/13 13:05:14;;;;;;;3.40;2.80;;;;;;;;;;5034152;28;20449;-85
2023/06/13 13:07:40;;;;;;;5.97;2.30;;;;;;;;;;5034016;28;20894;-86
2023/06/13 13:10:08;;;;;;;3.33;2.90;;;;;;;;;;5032672;28;20411;-86
2023/06/13 13:12:34;;;;;;;4.23;2.67;;;;;;;;;;5031594;28;20411;-85
2023/06/13 13:15:00;;;;;;;3.63;2.73;;;;;;;;;;5033854;28;20379;-85
2023/06/13 13:17:26;;;;;;;3.50;2.50;;;;;;;;;;5033917;28;20391;-87
2023/06/13 13:19:53;;;;;;;3.87;2.47;;;;;;;;;;5033869;28;20379;-86
2023/06/13 13:22:22;;;;;;;3.80;2.75;;;;;;;;;;5033578;28;20386;-86
2023/06/13 13:24:48;;;;;;;3.42;2.83;;;;;;;;;;5033664;28;20387;-86
2023/06/13 13:27:14;;;;;;;2.92;2.50;;;;;;;;;;5047207;28;20385;-86
2023/06/13 13:29:40;;;;;;;3.25;2.67;;;;;;;;;;5053549;28;20369;-86
2023/06/13 13:32:07;;;;;;;3.00;2.70;;;;;;;;;;5053070;28;20413;-86
2023/06/13 13:34:33;;;;;;;2.75;2.50;;;;;;;;;;5053434;28;20957;-85
2023/06/13 13:36:59;;;;;;;3.00;2.80;;;;;;;;;;5053561;28;20382;-87
2023/06/13 13:39:25;;;;;;;3.53;2.55;;;;;;;;;;5053475;28;20385;-85
2023/06/13 13:41:52;;;;;;;4.40;2.58;;;;;;;;;;5052889;28;20401;-86
2023/06/13 13:44:18;;;;;;;2.88;2.58;;;;;;;;;;5053288;28;20465;-85
2023/06/13 13:46:44;;;;;;;4.90;2.83;;;;;;;;;;5053296;28;20378;-85
2023/06/13 13:49:10;;;;;;;3.10;2.70;;;;;;;;;;5053290;28;20374;-85
2023/06/13 13:51:36;;;;;;;6.93;3.00;;;;;;;;;;5053207;28;20412;-86
2023/06/13 13:54:02;;;;;;;2.88;2.67;;;;;;;;;;5053093;28;20408;-85
2023/06/13 13:56:28;;;;;;;4.57;2.90;;;;;;;;;;5051182;28;20369;-85
2023/06/13 13:58:54;;;;;;;3.65;2.60;;;;;;;;;;5035812;28;20390;-85
2023/06/13 14:01:20;;;;;;;3.30;2.42;;;;;;;;;;5041212;28;20385;-85
2023/06/13 14:03:47;;;;;;;4.45;2.50;;;;;;;;;;5039403;28;20391;-85
2023/06/13 14:06:13;;;;;;;3.55;2.60;;;;;;;;;;5052386;28;20377;-85
2023/06/13 14:08:39;;;;;;;2.73;2.40;;;;;;;;;;5052895;28;20960;-86
2023/06/13 14:11:05;;;;;;;6.17;2.90;;;;;;;;;;5052712;28;20409;-85
2023/06/13 14:13:32;;;;;;;4.43;2.57;;;;;;;;;;5052608;28;20409;-85
2023/06/13 14:15:58;;;;;;;5.32;2.50;;;;;;;;;;5052775;28;20774;-85
2023/06/13 14:18:25;;;;;;;2.83;2.45;;;;;;;;;;5052686;28;20431;-86
2023/06/13 14:20:51;;;;;;;7.05;2.90;;;;;;;;;;5052512;28;20390;-86
2023/06/13 14:23:17;;;;;;;2.72;2.53;;;;;;;;;;5052425;28;20381;-85
2023/06/13 14:25:46;;;;;;;3.55;2.75;;;;;;;;;;5052642;28;20382;-85
2023/06/13 14:28:12;;;;;;;3.80;2.40;;;;;;;;;;5050699;28;20817;-86
2023/06/13 14:30:38;;;;;;;4.20;2.20;;;;;;;;;;5051111;28;20448;-85
2023/06/13 14:33:05;;;;;;;5.77;2.40;;;;;;;;;;5052377;28;20435;-86
2023/06/13 14:35:31;;;;;;;3.00;2.50;;;;;;;;;;5052361;28;20377;-86
2023/06/13 14:37:57;;;;;;;3.78;2.40;;;;;;;;;;5052158;28;20396;-86
2023/06/13 14:40:24;;;;;;;4.13;2.25;;;;;;;;;;5052001;28;20385;-86
2023/06/13 14:42:50;;;;;;;3.70;2.53;;;;;;;;;;5051992;28;20887;-85